createdAt,value
2022-08-21T00:00:09.656Z,18.75
2022-08-21T00:01:18.148Z,15.31
2022-08-21T00:02:28.613Z,18.12
2022-08-21T00:03:32.410Z,15.06
2022-08-21T00:04:48.237Z,16.81
2022-08-21T00:05:46.927Z,16.56
2022-08-21T00:06:52.870Z,21.69
2022-08-21T00:08:00.290Z,18.19
2022-08-21T00:09:07.264Z,15.81
2022-08-21T00:10:13.007Z,19.87
2022-08-21T00:11:17.097Z,20.31
2022-08-21T00:12:21.472Z,16.06
2022-08-21T00:13:25.602Z,18.06
2022-08-21T00:14:32.010Z,14.87
2022-08-21T00:15:38.439Z,22.00
2022-08-21T00:16:44.536Z,18.00
2022-08-21T00:18:06.541Z,15.44
2022-08-21T00:19:01.485Z,15.94
2022-08-21T00:20:10.290Z,16.81
2022-08-21T00:21:31.072Z,16.56
2022-08-21T00:23:35.728Z,14.44
2022-08-21T00:24:41.291Z,13.38
2022-08-21T00:25:41.160Z,15.38
2022-08-21T00:25:48.415Z,18.87
2022-08-21T00:26:57.438Z,12.25
2022-08-21T00:28:00.027Z,16.50
2022-08-21T00:29:05.621Z,17.87
2022-08-21T00:30:23.001Z,14.44
2022-08-21T00:31:18.495Z,16.69
2022-08-21T00:32:26.818Z,17.12
2022-08-21T00:33:31.178Z,14.44
2022-08-21T00:34:35.363Z,17.12
2022-08-21T00:35:42.081Z,18.06
2022-08-21T00:36:46.701Z,17.06
2022-08-21T00:37:51.141Z,13.69
2022-08-21T00:38:55.274Z,21.31
2022-08-21T00:39:59.491Z,18.31
2022-08-21T00:41:27.568Z,14.25
2022-08-21T00:42:12.860Z,29.69
2022-08-21T00:43:19.965Z,24.81
2022-08-21T00:44:24.021Z,27.19
2022-08-21T00:45:28.123Z,21.56
2022-08-21T00:46:32.370Z,23.94
2022-08-21T00:47:36.415Z,17.62
2022-08-21T00:48:40.451Z,17.87
2022-08-21T00:49:45.455Z,16.00
2022-08-21T00:51:07.664Z,14.87
2022-08-21T00:52:14.673Z,20.69
2022-08-21T00:53:19.860Z,14.94
2022-08-21T00:54:26.522Z,7.87
2022-08-21T00:55:33.891Z,17.81
2022-08-21T00:56:38.984Z,17.37
2022-08-21T00:57:47.696Z,17.00
2022-08-21T00:58:55.328Z,20.12
2022-08-21T01:00:03.628Z,15.19
2022-08-21T01:01:11.733Z,14.38
2022-08-21T01:02:17.253Z,15.06
2022-08-21T01:03:24.030Z,14.19
2022-08-21T01:04:28.364Z,20.00
2022-08-21T01:05:35.024Z,15.31
2022-08-21T01:06:38.939Z,10.69
2022-08-21T01:07:43.568Z,14.94
2022-08-21T01:08:48.171Z,18.50
2022-08-21T01:09:52.594Z,13.69
2022-08-21T01:10:57.914Z,16.12
2022-08-21T01:12:02.855Z,18.87
2022-08-21T01:13:11.131Z,19.56
2022-08-21T01:14:16.182Z,14.87
2022-08-21T01:15:21.019Z,15.44
2022-08-21T01:16:25.909Z,18.94
2022-08-21T01:17:34.735Z,13.81
2022-08-21T01:18:39.020Z,15.75
2022-08-21T01:19:44.906Z,15.00
2022-08-21T01:21:03.906Z,17.50
2022-08-21T01:22:07.936Z,18.81
2022-08-21T01:23:12.060Z,16.19
2022-08-21T01:24:16.153Z,13.13
2022-08-21T01:25:20.434Z,14.31
2022-08-21T01:26:32.682Z,14.38
2022-08-21T01:27:38.561Z,20.56
2022-08-21T01:28:45.570Z,14.75
2022-08-21T01:30:01.691Z,14.81
2022-08-21T01:31:10.654Z,15.69
2022-08-21T01:32:18.065Z,17.62
2022-08-21T01:33:25.307Z,15.88
2022-08-21T01:34:29.447Z,11.88
2022-08-21T01:35:33.484Z,16.06
2022-08-21T01:36:37.646Z,15.13
2022-08-21T01:37:41.870Z,15.75
2022-08-21T01:38:50.310Z,15.06
2022-08-21T01:39:54.378Z,14.13
2022-08-21T01:40:58.477Z,16.00
2022-08-21T01:42:03.114Z,17.50
2022-08-21T01:43:07.589Z,16.62
2022-08-21T01:44:11.628Z,15.81
2022-08-21T01:45:16.429Z,15.13
2022-08-21T01:46:21.599Z,15.69
2022-08-21T01:47:25.731Z,15.88
2022-08-21T01:48:29.755Z,17.62
2022-08-21T01:49:33.798Z,16.31
2022-08-21T01:50:38.736Z,17.31
2022-08-21T01:51:42.942Z,20.56
2022-08-21T01:52:47.353Z,13.94
2022-08-21T01:53:51.762Z,17.50
2022-08-21T01:54:55.874Z,16.94
2022-08-21T01:56:02.252Z,14.56
2022-08-21T01:57:07.466Z,14.87
2022-08-21T01:58:12.807Z,13.69
2022-08-21T01:59:16.928Z,12.50
2022-08-21T02:00:23.645Z,14.87
2022-08-21T02:01:27.785Z,13.88
2022-08-21T02:02:31.898Z,15.69
2022-08-21T02:03:37.994Z,14.06
2022-08-21T02:04:41.953Z,11.75
2022-08-21T02:05:47.720Z,14.56
2022-08-21T02:06:52.145Z,16.75
2022-08-21T02:07:56.442Z,16.50
2022-08-21T02:09:00.442Z,14.87
2022-08-21T02:10:05.982Z,13.19
2022-08-21T02:11:10.135Z,16.87
2022-08-21T02:12:14.180Z,19.25
2022-08-21T02:13:18.730Z,15.63
2022-08-21T02:14:32.450Z,16.19
2022-08-21T02:15:30.628Z,14.00
2022-08-21T02:16:35.141Z,13.00
2022-08-21T02:17:49.823Z,17.62
2022-08-21T02:18:55.206Z,15.44
2022-08-21T02:19:59.350Z,15.88
2022-08-21T02:21:06.824Z,16.12
2022-08-21T02:22:12.827Z,19.25
2022-08-21T02:23:18.670Z,18.25
2022-08-21T02:24:27.287Z,13.25
2022-08-21T02:25:31.493Z,11.63
2022-08-21T02:26:36.196Z,15.50
2022-08-21T02:27:42.695Z,14.44
2022-08-21T02:28:46.765Z,13.25
2022-08-21T02:29:50.754Z,16.56
2022-08-21T02:30:55.943Z,13.56
2022-08-21T02:32:00.110Z,14.69
2022-08-21T02:33:04.267Z,16.06
2022-08-21T02:34:08.255Z,16.87
2022-08-21T02:35:14.732Z,14.13
2022-08-21T02:36:19.730Z,16.06
2022-08-21T02:37:24.332Z,20.31
2022-08-21T02:38:31.404Z,18.81
2022-08-21T02:39:37.053Z,16.50
2022-08-21T02:40:48.259Z,16.19
2022-08-21T02:41:52.362Z,14.69
2022-08-21T02:42:56.553Z,16.94
2022-08-21T02:44:02.302Z,13.06
2022-08-21T02:45:07.436Z,13.62
2022-08-21T02:46:15.184Z,19.12
2022-08-21T02:47:19.361Z,17.25
2022-08-21T02:48:26.507Z,16.37
2022-08-21T02:49:30.537Z,15.13
2022-08-21T02:50:41.099Z,16.44
2022-08-21T02:51:46.635Z,15.63
2022-08-21T02:52:55.150Z,12.94
2022-08-21T02:53:58.033Z,15.94
2022-08-21T02:55:05.675Z,15.00
2022-08-21T02:56:11.298Z,11.81
2022-08-21T02:57:15.366Z,18.06
2022-08-21T02:58:22.206Z,16.00
2022-08-21T02:59:26.246Z,13.06
2022-08-21T03:00:32.104Z,11.56
2022-08-21T03:01:36.305Z,14.06
2022-08-21T03:02:40.508Z,15.00
2022-08-21T03:03:46.506Z,11.31
2022-08-21T03:04:52.898Z,17.94
2022-08-21T03:05:57.440Z,15.00
2022-08-21T03:07:02.263Z,13.94
2022-08-21T03:08:08.761Z,16.06
2022-08-21T03:09:12.736Z,10.56
2022-08-21T03:10:18.530Z,14.06
2022-08-21T03:11:24.412Z,14.63
2022-08-21T03:12:29.825Z,15.00
2022-08-21T03:13:34.935Z,13.75
2022-08-21T03:14:40.936Z,12.94
2022-08-21T03:15:45.166Z,12.88
2022-08-21T03:16:49.231Z,14.56
2022-08-21T03:17:53.779Z,12.94
2022-08-21T03:18:59.872Z,16.31
2022-08-21T03:20:05.181Z,16.62
2022-08-21T03:21:09.262Z,12.94
2022-08-21T03:22:13.302Z,16.25
2022-08-21T03:23:19.101Z,14.13
2022-08-21T03:24:23.620Z,10.50
2022-08-21T03:25:40.377Z,12.25
2022-08-21T03:26:35.433Z,14.06
2022-08-21T03:27:39.874Z,10.19
2022-08-21T03:28:45.565Z,12.56
2022-08-21T03:29:49.528Z,18.25
2022-08-21T03:30:54.327Z,18.00
2022-08-21T03:31:58.328Z,13.88
2022-08-21T03:33:02.638Z,13.44
2022-08-21T03:34:09.151Z,18.31
2022-08-21T03:35:13.546Z,14.13
2022-08-21T03:36:19.128Z,9.75
2022-08-21T03:37:23.097Z,12.13
2022-08-21T03:38:29.449Z,16.06
2022-08-21T03:39:33.843Z,12.25
2022-08-21T03:40:38.057Z,11.00
2022-08-21T03:41:42.253Z,9.50
2022-08-21T03:42:47.690Z,11.38
2022-08-21T03:43:51.715Z,14.69
2022-08-21T03:44:58.787Z,11.94
2022-08-21T03:46:05.088Z,8.94
2022-08-21T03:47:09.121Z,10.69
2022-08-21T03:48:13.427Z,11.69
2022-08-21T03:49:17.632Z,11.06
2022-08-21T03:50:24.474Z,12.13
2022-08-21T03:51:28.507Z,11.75
2022-08-21T03:52:32.508Z,9.63
2022-08-21T03:53:36.625Z,12.13
2022-08-21T03:54:40.835Z,14.25
2022-08-21T03:55:46.852Z,23.31
2022-08-21T03:56:50.900Z,40.06
2022-08-21T03:57:55.336Z,27.87
2022-08-21T03:58:59.641Z,23.25
2022-08-21T04:00:05.648Z,50.50
2022-08-21T04:01:11.430Z,28.56
2022-08-21T04:02:20.660Z,38.69
2022-08-21T04:03:24.789Z,31.44
2022-08-21T04:04:30.510Z,19.69
2022-08-21T04:05:34.713Z,15.63
2022-08-21T04:06:39.059Z,4.81
2022-08-21T04:07:43.079Z,16.00
2022-08-21T04:08:48.676Z,9.13
2022-08-21T04:09:55.450Z,8.38
2022-08-21T04:10:59.691Z,9.81
2022-08-21T04:12:05.642Z,7.12
2022-08-21T04:13:10.247Z,12.19
2022-08-21T04:14:15.460Z,15.88
2022-08-21T04:15:21.421Z,14.19
2022-08-21T04:16:27.064Z,15.19
2022-08-21T04:17:31.014Z,11.44
2022-08-21T04:18:36.751Z,9.00
2022-08-21T04:19:40.830Z,11.56
2022-08-21T04:20:50.207Z,14.25
2022-08-21T04:21:53.211Z,11.00
2022-08-21T04:22:58.165Z,11.06
2022-08-21T04:24:02.387Z,14.19
2022-08-21T04:25:06.930Z,13.44
2022-08-21T04:26:12.206Z,14.81
2022-08-21T04:27:16.193Z,13.06
2022-08-21T04:28:20.447Z,13.44
2022-08-21T04:29:24.417Z,12.37
2022-08-21T04:30:31.569Z,11.81
2022-08-21T04:31:36.884Z,10.88
2022-08-21T04:32:49.796Z,12.44
2022-08-21T04:33:53.901Z,12.56
2022-08-21T04:35:02.933Z,11.00
2022-08-21T04:36:07.363Z,10.25
2022-08-21T04:37:11.387Z,13.88
2022-08-21T04:38:15.431Z,11.75
2022-08-21T04:39:19.475Z,11.25
2022-08-21T04:40:27.643Z,10.50
2022-08-21T04:41:31.792Z,15.44
2022-08-21T04:42:38.896Z,30.94
2022-08-21T04:43:42.993Z,46.47
2022-08-21T04:44:49.274Z,61.13
2022-08-21T04:45:53.901Z,61.94
2022-08-21T04:46:59.572Z,67.62
2022-08-21T04:48:09.570Z,71.62
2022-08-21T04:49:12.197Z,66.94
2022-08-21T04:50:16.794Z,66.94
2022-08-21T04:51:37.121Z,66.25
2022-08-21T04:52:41.254Z,55.12
2022-08-21T04:53:54.270Z,12.88
2022-08-21T04:54:58.365Z,8.19
2022-08-21T04:56:12.750Z,8.94
2022-08-21T04:57:17.924Z,11.56
2022-08-21T04:58:26.438Z,12.81
2022-08-21T04:59:33.427Z,17.19
2022-08-21T05:00:37.984Z,8.19
2022-08-21T05:01:42.849Z,12.63
2022-08-21T05:02:47.884Z,14.69
2022-08-21T05:03:56.429Z,10.06
2022-08-21T05:05:01.532Z,12.25
2022-08-21T05:06:07.993Z,10.25
2022-08-21T05:07:14.948Z,10.94
2022-08-21T05:08:21.982Z,10.56
2022-08-21T05:09:26.717Z,9.44
2022-08-21T05:10:32.718Z,11.81
2022-08-21T05:11:37.841Z,49.13
2022-08-21T05:12:45.457Z,68.81
2022-08-21T05:13:52.343Z,75.19
2022-08-21T05:14:55.917Z,66.31
2022-08-21T05:16:00.100Z,74.69
2022-08-21T05:17:04.491Z,66.81
2022-08-21T05:18:08.699Z,91.87
2022-08-21T05:19:14.596Z,108.81
2022-08-21T05:20:22.101Z,90.73
2022-08-21T05:21:26.082Z,80.53
2022-08-21T05:22:31.677Z,78.69
2022-08-21T05:23:38.269Z,73.13
2022-08-21T05:24:41.494Z,75.80
2022-08-21T05:25:45.725Z,88.60
2022-08-21T05:26:50.449Z,88.93
2022-08-21T05:27:54.590Z,94.87
2022-08-21T05:28:59.510Z,103.25
2022-08-21T05:30:05.726Z,102.00
2022-08-21T05:31:09.857Z,101.62
2022-08-21T05:32:20.006Z,119.81
2022-08-21T05:33:25.491Z,104.33
2022-08-21T05:34:29.644Z,97.00
2022-08-21T05:35:34.435Z,106.33
2022-08-21T05:36:41.275Z,98.94
2022-08-21T05:37:46.896Z,101.19
2022-08-21T05:38:51.528Z,117.87
2022-08-21T05:40:20.760Z,100.38
2022-08-21T05:41:03.505Z,115.81
2022-08-21T05:42:08.071Z,102.25
2022-08-21T05:43:14.092Z,80.25
2022-08-21T05:44:17.775Z,101.81
2022-08-21T05:45:41.321Z,167.44
2022-08-21T05:46:32.038Z,217.59
2022-08-21T05:47:38.772Z,161.65
2022-08-21T05:48:42.898Z,112.56
2022-08-21T05:49:46.965Z,97.81
2022-08-21T05:50:53.283Z,77.87
2022-08-21T05:51:58.513Z,84.37
2022-08-21T05:53:07.060Z,102.38
2022-08-21T05:54:09.950Z,169.76
2022-08-21T05:55:14.282Z,193.47
2022-08-21T05:56:18.933Z,177.87
2022-08-21T05:57:26.095Z,138.37
2022-08-21T05:58:30.130Z,68.87
2022-08-21T05:59:35.372Z,103.19
2022-08-21T06:00:42.420Z,112.47
2022-08-21T06:01:46.717Z,119.69
2022-08-21T06:02:51.598Z,110.06
2022-08-21T06:03:56.775Z,113.20
2022-08-21T06:05:01.292Z,112.07
2022-08-21T06:06:06.966Z,120.56
2022-08-21T06:07:13.020Z,118.87
2022-08-21T06:08:17.963Z,108.75
2022-08-21T06:09:21.997Z,108.37
2022-08-21T06:10:27.737Z,102.31
2022-08-21T06:11:32.277Z,119.44
2022-08-21T06:12:36.335Z,90.25
2022-08-21T06:13:41.611Z,104.44
2022-08-21T06:14:45.756Z,118.25
2022-08-21T06:15:50.383Z,115.06
2022-08-21T06:16:54.451Z,112.88
2022-08-21T06:18:00.120Z,121.37
2022-08-21T06:19:04.194Z,112.62
2022-08-21T06:20:10.851Z,125.12
2022-08-21T06:21:15.394Z,117.62
2022-08-21T06:22:20.529Z,77.69
2022-08-21T06:23:24.530Z,82.80
2022-08-21T06:24:30.729Z,64.75
2022-08-21T06:25:34.885Z,73.87
2022-08-21T06:26:39.841Z,74.53
2022-08-21T06:27:43.866Z,66.81
2022-08-21T06:28:50.160Z,69.25
2022-08-21T06:29:54.299Z,60.56
2022-08-21T06:30:58.504Z,55.47
2022-08-21T06:32:05.188Z,38.88
2022-08-21T06:33:09.490Z,45.19
2022-08-21T06:34:13.665Z,38.31
2022-08-21T06:35:17.614Z,48.06
2022-08-21T06:36:23.524Z,42.44
2022-08-21T06:37:29.219Z,42.80
2022-08-21T06:38:34.832Z,41.94
2022-08-21T06:39:44.661Z,26.06
2022-08-21T06:40:48.295Z,39.19
2022-08-21T06:41:52.462Z,30.87
2022-08-21T06:42:58.928Z,29.63
2022-08-21T06:44:03.238Z,43.60
2022-08-21T06:45:07.626Z,35.44
2022-08-21T06:46:14.578Z,32.06
2022-08-21T06:47:21.079Z,34.50
2022-08-21T06:48:25.409Z,42.94
2022-08-21T06:49:29.492Z,63.38
2022-08-21T06:50:43.148Z,60.13
2022-08-21T06:51:41.835Z,44.44
2022-08-21T06:52:46.070Z,32.50
2022-08-21T06:53:52.164Z,35.50
2022-08-21T06:54:56.157Z,60.06
2022-08-21T06:56:00.161Z,52.44
2022-08-21T06:57:04.459Z,51.06
2022-08-21T06:58:09.020Z,29.75
2022-08-21T06:59:15.826Z,36.75
2022-08-21T07:00:21.275Z,40.50
2022-08-21T07:01:26.915Z,36.75
2022-08-21T07:02:30.952Z,33.00
2022-08-21T07:03:39.843Z,43.69
2022-08-21T07:04:44.009Z,43.63
2022-08-21T07:05:48.122Z,42.56
2022-08-21T07:06:52.369Z,40.12
2022-08-21T07:07:56.901Z,47.31
2022-08-21T07:09:04.493Z,69.44
2022-08-21T07:10:22.361Z,45.06
2022-08-21T07:11:22.124Z,68.81
2022-08-21T07:12:26.172Z,63.56
2022-08-21T07:13:33.750Z,57.33
2022-08-21T07:14:36.561Z,51.81
2022-08-21T07:15:40.705Z,64.60
2022-08-21T07:16:44.987Z,54.31
2022-08-21T07:17:48.957Z,64.00
2022-08-21T07:18:57.756Z,69.31
2022-08-21T07:20:00.505Z,68.56
2022-08-21T07:21:08.249Z,52.75
2022-08-21T07:22:13.507Z,66.87
2022-08-21T07:23:29.593Z,71.00
2022-08-21T07:24:33.639Z,102.56
2022-08-21T07:25:37.863Z,98.53
2022-08-21T07:26:42.867Z,83.07
2022-08-21T07:27:48.501Z,63.75
2022-08-21T07:28:53.415Z,54.53
2022-08-21T07:30:02.559Z,50.94
2022-08-21T07:31:08.290Z,54.07
2022-08-21T07:32:13.272Z,52.31
2022-08-21T07:33:17.462Z,48.67
2022-08-21T07:34:21.666Z,50.31
2022-08-21T07:35:27.683Z,51.07
2022-08-21T07:36:33.319Z,38.75
2022-08-21T07:37:39.038Z,48.31
2022-08-21T07:38:43.115Z,49.47
2022-08-21T07:39:47.327Z,54.94
2022-08-21T07:40:56.367Z,54.80
2022-08-21T07:42:02.940Z,66.27
2022-08-21T07:43:06.167Z,55.75
2022-08-21T07:44:10.166Z,41.31
2022-08-21T07:45:18.604Z,65.19
2022-08-21T07:46:25.708Z,47.38
2022-08-21T07:47:42.358Z,55.40
2022-08-21T07:48:36.841Z,80.19
2022-08-21T07:49:40.909Z,60.07
2022-08-21T07:50:45.533Z,67.50
2022-08-21T07:51:50.958Z,56.37
2022-08-21T07:52:55.055Z,71.60
2022-08-21T07:54:00.845Z,49.88
2022-08-21T07:55:06.650Z,46.56
2022-08-21T07:56:12.452Z,45.25
2022-08-21T07:57:19.277Z,47.53
2022-08-21T07:58:25.138Z,52.25
2022-08-21T07:59:29.948Z,34.75
2022-08-21T08:00:35.160Z,35.69
2022-08-21T08:01:39.220Z,35.81
2022-08-21T08:02:49.199Z,28.69
2022-08-21T08:03:53.334Z,38.27
2022-08-21T08:05:02.578Z,31.00
2022-08-21T08:06:07.865Z,29.12
2022-08-21T08:07:14.572Z,36.06
2022-08-21T08:08:18.733Z,32.69
2022-08-21T08:09:22.795Z,32.31
2022-08-21T08:10:30.383Z,28.50
2022-08-21T08:11:47.471Z,32.63
2022-08-21T08:12:43.562Z,33.13
2022-08-21T08:13:52.683Z,32.19
2022-08-21T08:14:59.133Z,36.47
2022-08-21T08:16:04.888Z,34.38
2022-08-21T08:17:08.922Z,31.69
2022-08-21T08:18:12.998Z,26.12
2022-08-21T08:19:16.991Z,41.13
2022-08-21T08:20:23.804Z,28.31
2022-08-21T08:21:28.235Z,16.25
2022-08-21T08:22:32.508Z,21.69
2022-08-21T08:23:39.957Z,32.75
2022-08-21T08:24:45.446Z,24.25
2022-08-21T08:25:49.479Z,26.62
2022-08-21T08:26:53.983Z,35.19
2022-08-21T08:27:58.422Z,29.94
2022-08-21T08:29:17.837Z,33.06
2022-08-21T08:30:11.613Z,31.25
2022-08-21T08:31:15.722Z,24.63
2022-08-21T08:32:22.053Z,23.62
2022-08-21T08:33:26.139Z,22.13
2022-08-21T08:34:30.192Z,15.81
2022-08-21T08:35:34.380Z,10.38
2022-08-21T08:36:40.733Z,9.38
2022-08-21T08:37:52.194Z,9.06
2022-08-21T08:38:53.552Z,13.31
2022-08-21T08:39:57.807Z,15.88
2022-08-21T08:41:11.026Z,11.00
2022-08-21T08:42:33.386Z,8.63
2022-08-21T08:43:37.474Z,8.00
2022-08-21T08:44:45.661Z,12.13
2022-08-21T08:45:59.311Z,16.56
2022-08-21T08:47:04.817Z,15.00
2022-08-21T08:48:14.043Z,12.06
2022-08-21T08:49:21.734Z,18.62
2022-08-21T08:50:43.889Z,10.81
2022-08-21T08:51:59.920Z,10.75
2022-08-21T08:53:09.678Z,15.44
2022-08-21T08:54:22.718Z,17.50
2022-08-21T08:55:29.709Z,10.38
2022-08-21T08:56:35.457Z,17.31
2022-08-21T08:57:44.066Z,11.69
2022-08-21T08:58:52.887Z,12.75
2022-08-21T09:00:00.345Z,14.56
2022-08-21T09:01:10.511Z,13.06
2022-08-21T09:02:17.419Z,14.31
2022-08-21T09:03:24.991Z,15.00
2022-08-21T09:04:30.216Z,13.44
2022-08-21T09:06:02.608Z,17.00
2022-08-21T09:07:15.269Z,16.62
2022-08-21T09:08:41.613Z,13.00
2022-08-21T09:10:21.486Z,15.69
2022-08-21T09:11:34.449Z,15.75
2022-08-21T09:12:59.552Z,14.25
2022-08-21T09:14:08.014Z,11.06
2022-08-21T09:15:32.991Z,15.06
2022-08-21T09:16:55.262Z,13.25
2022-08-21T09:18:24.799Z,11.06
2022-08-21T09:19:48.760Z,15.75
2022-08-21T09:21:07.579Z,13.38
2022-08-21T09:22:17.531Z,19.06
2022-08-21T09:23:39.833Z,17.94
2022-08-21T09:25:10.836Z,30.56
2022-08-21T09:26:20.648Z,17.00
2022-08-21T09:27:24.787Z,19.25
2022-08-21T09:28:30.377Z,15.81
2022-08-21T09:29:41.584Z,19.69
2022-08-21T09:30:45.917Z,16.56
2022-08-21T09:31:49.975Z,12.31
2022-08-21T09:32:54.122Z,28.62
2022-08-21T09:34:06.909Z,15.63
2022-08-21T09:35:18.736Z,12.13
2022-08-21T09:36:43.771Z,13.06
2022-08-21T09:37:59.410Z,17.44
2022-08-21T09:39:04.134Z,10.63
2022-08-21T09:40:23.446Z,15.31
2022-08-21T09:41:33.228Z,14.25
2022-08-21T09:42:37.376Z,16.62
2022-08-21T09:43:41.669Z,15.13
2022-08-21T09:44:52.579Z,10.75
2022-08-21T09:46:09.303Z,12.88
2022-08-21T09:47:17.798Z,18.00
2022-08-21T09:48:26.993Z,12.94
2022-08-21T09:49:36.248Z,11.75
2022-08-21T09:50:53.343Z,30.44
2022-08-21T09:51:54.708Z,14.19
2022-08-21T09:53:03.142Z,12.81
2022-08-21T09:54:10.195Z,17.44
2022-08-21T09:55:25.959Z,14.44
2022-08-21T09:56:38.534Z,11.00
2022-08-21T09:57:50.623Z,13.13
2022-08-21T09:58:52.874Z,17.06
2022-08-21T10:00:03.665Z,15.13
2022-08-21T10:01:07.430Z,10.13
2022-08-21T10:02:26.306Z,15.94
2022-08-21T10:03:30.487Z,16.37
2022-08-21T10:04:36.803Z,18.31
2022-08-21T10:05:47.874Z,12.63
2022-08-21T10:06:48.946Z,13.31
2022-08-21T10:07:54.842Z,17.87
2022-08-21T10:09:21.086Z,13.88
2022-08-21T10:10:27.125Z,14.69
2022-08-21T10:11:32.657Z,15.31
2022-08-21T10:13:01.850Z,13.31
2022-08-21T10:14:17.802Z,13.88
2022-08-21T10:15:36.618Z,11.50
2022-08-21T10:16:45.168Z,11.56
2022-08-21T10:18:00.711Z,17.44
2022-08-21T10:19:12.512Z,14.50
2022-08-21T10:20:22.190Z,12.19
2022-08-21T10:21:39.732Z,13.94
2022-08-21T10:22:46.784Z,14.44
2022-08-21T10:24:05.823Z,13.62
2022-08-21T10:25:33.758Z,15.56
2022-08-21T10:26:55.713Z,11.00
2022-08-21T10:28:06.608Z,14.63
2022-08-21T10:29:29.906Z,15.38
2022-08-21T10:30:51.291Z,16.94
2022-08-21T10:32:25.575Z,13.25
2022-08-21T10:33:39.569Z,13.19
2022-08-21T10:34:51.191Z,12.06
2022-08-21T10:36:10.935Z,14.75
2022-08-21T10:37:31.005Z,15.25
2022-08-21T10:39:02.320Z,16.56
2022-08-21T10:40:01.142Z,16.50
2022-08-21T10:41:24.685Z,14.50
2022-08-21T10:42:47.724Z,14.31
2022-08-21T10:44:12.400Z,13.94
2022-08-21T10:45:28.034Z,16.19
2022-08-21T10:46:49.214Z,17.37
2022-08-21T10:47:58.996Z,18.62
2022-08-21T10:49:06.108Z,17.19
2022-08-21T10:50:20.465Z,16.37
2022-08-21T10:51:45.351Z,16.56
2022-08-21T10:52:55.030Z,18.00
2022-08-21T10:54:23.477Z,15.69
2022-08-21T10:55:49.858Z,16.94
2022-08-21T10:56:46.826Z,15.94
2022-08-21T10:57:59.846Z,15.63
2022-08-21T10:59:23.054Z,15.50
2022-08-21T11:00:36.606Z,18.12
2022-08-21T11:01:59.734Z,14.75
2022-08-21T11:03:09.311Z,16.12
2022-08-21T11:04:19.280Z,16.00
2022-08-21T11:05:38.247Z,17.94
2022-08-21T11:06:45.717Z,15.25
2022-08-21T11:08:09.921Z,18.75
2022-08-21T11:09:16.999Z,14.31
2022-08-21T11:10:31.550Z,14.06
2022-08-21T11:11:43.838Z,12.88
2022-08-21T11:12:52.002Z,13.25
2022-08-21T11:14:00.580Z,16.19
2022-08-21T11:15:28.704Z,17.50
2022-08-21T11:16:29.239Z,16.44
2022-08-21T11:17:44.807Z,15.88
2022-08-21T11:19:05.844Z,14.50
2022-08-21T11:20:21.739Z,13.69
2022-08-21T11:21:51.254Z,17.75
2022-08-21T11:23:04.590Z,15.75
2022-08-21T11:24:20.714Z,14.44
2022-08-21T11:25:37.247Z,18.00
2022-08-21T11:27:02.215Z,18.81
2022-08-21T11:28:14.906Z,16.50
2022-08-21T11:29:27.001Z,10.13
2022-08-21T11:30:32.209Z,16.12
2022-08-21T11:31:42.061Z,12.81
2022-08-21T11:32:59.275Z,11.06
2022-08-21T11:34:31.701Z,15.50
2022-08-21T11:35:53.288Z,14.06
2022-08-21T11:37:04.612Z,11.00
2022-08-21T11:38:35.514Z,13.25
2022-08-21T11:40:00.323Z,15.88
2022-08-21T11:41:23.556Z,14.13
2022-08-21T11:42:45.418Z,18.00
2022-08-21T11:43:58.469Z,12.56
2022-08-21T11:45:41.554Z,10.88
2022-08-21T11:46:51.286Z,12.56
2022-08-21T11:48:30.955Z,15.81
2022-08-21T11:49:52.587Z,12.37
2022-08-21T11:50:58.597Z,13.69
2022-08-21T11:52:17.904Z,20.12
2022-08-21T11:53:33.814Z,12.75
2022-08-21T11:54:45.119Z,12.69
2022-08-21T11:55:52.138Z,14.63
2022-08-21T11:57:05.122Z,15.25
2022-08-21T11:58:20.760Z,16.31
2022-08-21T11:59:27.739Z,11.12
2022-08-21T12:00:37.608Z,15.56
2022-08-21T12:01:44.916Z,17.87
2022-08-21T12:02:52.005Z,15.00
2022-08-21T12:04:07.776Z,13.19
2022-08-21T12:05:14.814Z,13.62
2022-08-21T12:06:30.265Z,14.44
2022-08-21T12:07:36.502Z,12.69
2022-08-21T12:08:48.275Z,14.94
2022-08-21T12:09:58.360Z,8.31
2022-08-21T12:11:23.219Z,13.19
2022-08-21T12:12:36.221Z,12.13
2022-08-21T12:13:43.578Z,16.62
2022-08-21T12:14:51.880Z,17.37
2022-08-21T12:16:07.254Z,16.19
2022-08-21T12:17:24.538Z,13.94
2022-08-21T12:18:32.809Z,16.12
2022-08-21T12:19:37.297Z,14.69
2022-08-21T12:20:50.235Z,12.06
2022-08-21T12:21:53.568Z,15.19
2022-08-21T12:23:12.679Z,17.37
2022-08-21T12:24:17.816Z,11.12
2022-08-21T12:25:23.019Z,15.81
2022-08-21T12:26:30.119Z,10.88
2022-08-21T12:27:48.983Z,18.12
2022-08-21T12:28:54.621Z,14.50
2022-08-21T12:30:01.623Z,14.81
2022-08-21T12:31:07.256Z,15.38
2022-08-21T12:32:21.682Z,13.06
2022-08-21T12:33:28.709Z,17.75
2022-08-21T12:34:38.405Z,15.13
2022-08-21T12:35:44.681Z,12.63
2022-08-21T12:37:05.829Z,13.19
2022-08-21T12:38:10.504Z,13.94
2022-08-21T12:39:20.101Z,14.13
2022-08-21T12:40:33.330Z,10.75
2022-08-21T12:41:41.818Z,9.69
2022-08-21T12:42:58.264Z,14.13
2022-08-21T12:44:02.328Z,16.37
2022-08-21T12:45:08.190Z,12.13
2022-08-21T12:46:24.907Z,14.31
2022-08-21T12:47:34.859Z,14.81
2022-08-21T12:48:44.667Z,17.44
2022-08-21T12:49:54.331Z,13.75
2022-08-21T12:51:01.428Z,12.00
2022-08-21T12:54:53.193Z,16.06
2022-08-21T12:56:02.188Z,22.56
2022-08-21T12:57:08.096Z,7.56
2022-08-21T12:58:23.485Z,13.25
2022-08-21T12:59:27.985Z,16.87
2022-08-21T13:00:32.235Z,8.25
2022-08-21T13:01:42.256Z,12.50
2022-08-21T13:02:49.319Z,15.75
2022-08-21T13:04:04.081Z,16.06
2022-08-21T13:05:05.696Z,11.94
2022-08-21T13:06:12.878Z,10.81
2022-08-21T13:07:22.570Z,9.94
2022-08-21T13:08:29.058Z,15.00
2022-08-21T13:09:33.300Z,12.69
2022-08-21T13:10:40.253Z,13.56
2022-08-21T13:11:47.153Z,9.94
2022-08-21T13:12:58.815Z,14.38
2022-08-21T13:14:06.231Z,21.50
2022-08-21T13:15:12.419Z,15.25
2022-08-21T13:16:28.404Z,7.50
2022-08-21T13:17:37.184Z,25.56
2022-08-21T13:18:54.210Z,18.94
2022-08-21T13:20:02.835Z,21.75
2022-08-21T13:21:11.780Z,14.94
2022-08-21T13:22:34.903Z,12.75
2022-08-21T13:23:29.790Z,13.25
2022-08-21T13:24:42.699Z,10.06
2022-08-21T13:25:43.828Z,11.12
2022-08-21T13:26:50.100Z,38.75
2022-08-21T13:28:08.718Z,15.13
2022-08-21T13:29:15.722Z,17.44
2022-08-21T13:30:22.419Z,23.25
2022-08-21T13:31:30.832Z,11.56
2022-08-21T13:32:40.130Z,16.62
2022-08-21T13:33:46.444Z,18.19
2022-08-21T13:34:53.916Z,13.38
2022-08-21T13:36:14.622Z,17.12
2022-08-21T13:37:19.529Z,18.31
2022-08-21T13:38:27.209Z,18.12
2022-08-21T13:39:32.209Z,22.94
2022-08-21T13:40:52.733Z,15.94
2022-08-21T13:42:02.227Z,14.87
2022-08-21T13:43:11.019Z,11.44
2022-08-21T13:44:23.914Z,16.81
2022-08-21T13:45:30.883Z,17.06
2022-08-21T13:46:37.921Z,18.81
2022-08-21T13:47:42.617Z,12.75
2022-08-21T13:48:46.916Z,11.81
2022-08-21T13:49:59.165Z,15.31
2022-08-21T13:51:02.678Z,13.88
2022-08-21T13:52:15.671Z,8.25
2022-08-21T13:53:33.145Z,11.25
2022-08-21T13:54:42.628Z,14.31
2022-08-21T13:55:59.944Z,9.25
2022-08-21T13:57:01.484Z,11.38
2022-08-21T13:58:07.107Z,7.81
2022-08-21T13:59:13.420Z,9.94
2022-08-21T14:00:25.360Z,15.06
2022-08-21T14:01:41.183Z,16.06
2022-08-21T14:02:48.720Z,11.44
2022-08-21T14:03:57.405Z,14.87
2022-08-21T14:05:05.691Z,20.25
2022-08-21T14:06:22.440Z,12.69
2022-08-21T14:07:29.505Z,16.37
2022-08-21T14:08:38.081Z,19.56
2022-08-21T14:09:45.697Z,15.25
2022-08-21T14:10:57.221Z,16.37
2022-08-21T14:12:03.552Z,15.75
2022-08-21T14:13:10.877Z,14.44
2022-08-21T14:14:29.481Z,25.69
2022-08-21T14:15:35.877Z,18.31
2022-08-21T14:16:47.577Z,15.50
2022-08-21T14:17:54.317Z,27.81
2022-08-21T14:19:04.394Z,26.69
2022-08-21T14:20:12.451Z,21.69
2022-08-21T14:21:22.025Z,30.25
2022-08-21T14:22:49.917Z,30.88
2022-08-21T14:23:51.836Z,21.94
2022-08-21T14:25:24.788Z,32.31
2022-08-21T14:26:29.647Z,25.00
2022-08-21T14:27:26.568Z,26.12
2022-08-21T14:28:43.953Z,29.37
2022-08-21T14:29:49.834Z,31.50
2022-08-21T14:30:56.096Z,38.00
2022-08-21T14:32:02.573Z,37.06
2022-08-21T14:33:18.457Z,29.50
2022-08-21T14:34:26.662Z,26.00
2022-08-21T14:35:31.648Z,36.75
2022-08-21T14:36:37.718Z,25.37
2022-08-21T14:37:45.761Z,39.94
2022-08-21T14:38:49.988Z,40.31
2022-08-21T14:39:54.189Z,44.94
2022-08-21T14:41:04.242Z,45.81